Albany, IN

10:46 AM EST on November 28, 2014 (GMT -0500)
Delaware County-Johnson | Change Station
CLOSE
Current Station
Airport
Location: Muncie,
Elevation: 938 ft
Nearby Weather Stations

Elev 938 ft 40.23 °N, 85.39 °W | Updated 53 minutes ago

Overcast
Overcast
24 °F
Feels Like 15 °F
N
8
Wind Variable Wind from SSW

Today
High -- | Low -- °F
--% Chance of Precip.
Yesterday
High -- | Low -- °F
Precip. -- in
7:41 AM 5:16 PM
Waxing Crescent, 41% visible
Pressure 30.36 in
Visibility 10.0 miles
Clouds Scattered Clouds 7500 ft
Mostly Cloudy 8500 ft
Overcast 10000 ft
Windchill 15 °F
Dew Point 18 °F
Humidity 77%
Rainfall 0.00 in
Snow Depth Not available.
UV 0 out of 12
Pollen .10 out of 12
Air Quality Not available.
Flu Activity Not available.
METAR KMIE 281453Z 20007KT 10SM SCT075 BKN085 OVC100 M04/M08 A3033 RMK AO2 SLP280 T10441078 56010

More Conditions Fewer Conditions

Pressure 30.36 in
Visibility 10.0 miles
Clouds Scattered Clouds 7500 ft
Mostly Cloudy 8500 ft
Overcast 10000 ft
Windchill 15 °F
Dew Point 18 °F
Humidity 77%
Rainfall 0.00 in
Snow Depth Not available.
UV 0 out of 12
Pollen .10 out of 12
Air Quality Not available.
Flu Activity Not available.
METAR KMIE 281453Z 20007KT 10SM SCT075 BKN085 OVC100 M04/M08 A3033 RMK AO2 SLP280 T10441078 56010

More Conditions Fewer Conditions

10-Day Weather Forecast

Almanac

Astronomy

Nov. 28, 2014 Rise Set
Actual Time
Civil Twilight
Nautical Twilight
Astronomical Twilight
Moon
Length of Visible Light
Length of Day
Tomorrow will be .
, % of the Moon is Illuminated

Today's Extremes

State Highs State Lows

Community

WunderPhotos

Upload Photos

1,774,234 photos uploaded!

WunderBlogs® & News

Nearby

Air Quality

  Air Quality AQ Index Pollutant
Not available.

Snow Depth

Station Depth Elevation

Earthquake Activity

City Distance Mag. Time & Date
Minimum magnitude displayed is 2.5.

Coastal Water Temperatures

Place Temperature

Nearby Weather Stations